createdAt,value
2022-09-20T00:02:05.009Z,5.15
2022-09-20T00:07:07.116Z,3.88
2022-09-20T00:12:10.168Z,3.30
2022-09-20T00:17:12.032Z,6.15
2022-09-20T00:22:13.886Z,6.85
2022-09-20T00:27:15.691Z,5.38
2022-09-20T00:32:17.653Z,2.92
2022-09-20T00:37:19.608Z,5.53
2022-09-20T00:42:46.942Z,4.13
2022-09-20T00:47:53.721Z,5.68
2022-09-20T00:53:06.149Z,6.85
2022-09-20T00:58:09.485Z,4.18
2022-09-20T01:03:15.545Z,4.10
2022-09-20T01:08:18.360Z,4.45
2022-09-20T01:13:20.173Z,1.70
2022-09-20T01:18:23.523Z,4.35
2022-09-20T01:23:28.282Z,6.93
2022-09-20T01:28:30.620Z,4.57
2022-09-20T01:33:53.479Z,3.63
2022-09-20T01:39:10.523Z,2.42
2022-09-20T01:44:40.519Z,3.08
2022-09-20T01:50:23.579Z,3.33
2022-09-20T01:55:57.231Z,3.33
2022-09-20T02:01:24.373Z,5.57
2022-09-20T02:06:54.622Z,4.40
2022-09-20T02:12:08.364Z,6.13
2022-09-20T02:17:14.913Z,2.03
2022-09-20T02:22:54.238Z,1.08
2022-09-20T02:28:14.157Z,2.88
2022-09-20T02:33:37.186Z,4.03
2022-09-20T02:38:46.493Z,1.33
2022-09-20T02:44:00.348Z,4.00
2022-09-20T02:49:20.072Z,1.98
2022-09-20T02:54:46.212Z,3.83
2022-09-20T02:59:58.726Z,8.32
2022-09-20T03:05:06.209Z,1.10
2022-09-20T03:10:32.742Z,4.38
2022-09-20T03:15:58.037Z,2.97
2022-09-20T03:21:11.905Z,3.28
2022-09-20T03:26:19.586Z,1.38
2022-09-20T03:31:41.710Z,8.13
2022-09-20T03:37:04.924Z,7.43
2022-09-20T03:42:23.390Z,6.30
2022-09-20T03:47:43.653Z,10.43
2022-09-20T03:53:19.900Z,3.28
2022-09-20T03:58:30.826Z,4.63
2022-09-20T04:03:35.588Z,2.70
2022-09-20T04:08:56.105Z,2.80
2022-09-20T04:14:12.922Z,3.05
2022-09-20T04:19:32.774Z,5.28
2022-09-20T04:25:13.864Z,6.50
2022-09-20T04:30:44.018Z,3.63
2022-09-20T04:36:15.440Z,7.33
2022-09-20T04:41:34.490Z,6.40
2022-09-20T04:46:57.926Z,6.85
2022-09-20T04:52:04.153Z,8.52
2022-09-20T04:57:36.852Z,10.18
2022-09-20T05:02:57.837Z,9.95
2022-09-20T05:08:37.123Z,6.38
2022-09-20T05:14:01.123Z,6.97
2022-09-20T05:19:10.349Z,5.70
2022-09-20T05:24:35.056Z,8.95
2022-09-20T05:29:42.410Z,7.18
2022-09-20T05:34:53.885Z,5.75
2022-09-20T05:40:22.107Z,6.05
2022-09-20T05:45:45.578Z,10.30
2022-09-20T05:51:18.847Z,6.80
2022-09-20T05:56:42.996Z,7.43
2022-09-20T06:02:29.669Z,10.52
2022-09-20T06:08:13.030Z,10.43
2022-09-20T06:13:50.337Z,17.58
2022-09-20T06:19:32.515Z,15.23
2022-09-20T06:24:37.468Z,14.10
2022-09-20T06:29:44.175Z,10.07
2022-09-20T06:34:47.812Z,12.35
2022-09-20T06:40:29.847Z,9.70
2022-09-20T06:45:32.289Z,9.68
2022-09-20T06:50:36.311Z,7.13
2022-09-20T06:55:41.025Z,11.10
2022-09-20T07:00:42.939Z,9.98
2022-09-20T07:05:44.739Z,10.20
2022-09-20T07:10:46.604Z,10.27
2022-09-20T07:15:48.639Z,12.50
2022-09-20T07:20:50.472Z,10.52
2022-09-20T07:25:52.918Z,11.10
2022-09-20T07:30:54.713Z,7.35
2022-09-20T07:35:56.584Z,13.55
2022-09-20T07:41:01.024Z,8.38
2022-09-20T07:46:03.257Z,8.60
2022-09-20T07:51:08.905Z,9.05
2022-09-20T07:56:15.896Z,18.27
2022-09-20T08:01:17.771Z,13.75
2022-09-20T08:06:21.460Z,14.93
2022-09-20T08:11:27.846Z,14.73
2022-09-20T08:16:31.151Z,14.98
2022-09-20T08:21:34.878Z,16.75
2022-09-20T08:26:37.280Z,13.27
2022-09-20T08:31:42.409Z,23.17
2022-09-20T08:36:47.111Z,17.30
2022-09-20T08:41:56.823Z,15.23
2022-09-20T08:47:22.507Z,20.90
2022-09-20T08:52:37.081Z,11.95
2022-09-20T08:57:39.188Z,21.80
2022-09-20T09:02:41.744Z,19.45
2022-09-20T09:07:43.573Z,17.23
2022-09-20T09:12:48.716Z,17.63
2022-09-20T09:17:50.786Z,9.95
2022-09-20T09:23:05.606Z,10.10
2022-09-20T09:28:07.392Z,9.93
2022-09-20T09:33:31.065Z,8.55
2022-09-20T09:38:38.454Z,10.25
2022-09-20T09:43:40.714Z,5.13
2022-09-20T09:48:42.719Z,10.48
2022-09-20T09:53:46.499Z,15.30
2022-09-20T09:58:58.099Z,10.15
2022-09-20T10:04:36.473Z,8.95
2022-09-20T10:09:59.507Z,13.18
2022-09-20T10:15:40.465Z,7.55
2022-09-20T10:21:00.747Z,12.18
2022-09-20T10:26:22.485Z,14.88
2022-09-20T10:31:36.963Z,11.63
2022-09-20T10:36:43.712Z,8.75
2022-09-20T10:42:18.760Z,5.22
2022-09-20T10:47:28.976Z,9.00
2022-09-20T10:52:36.530Z,10.63
2022-09-20T10:57:56.542Z,7.13
2022-09-20T11:03:13.771Z,5.20
2022-09-20T11:08:25.599Z,10.35
2022-09-20T11:14:04.272Z,6.88
2022-09-20T11:19:31.446Z,6.35
2022-09-20T11:24:51.549Z,4.28
2022-09-20T11:30:02.115Z,6.75
2022-09-20T11:35:29.409Z,4.85
2022-09-20T11:40:38.713Z,5.88
2022-09-20T11:45:43.268Z,11.90
2022-09-20T11:50:47.799Z,4.28
2022-09-20T11:56:02.126Z,8.67
2022-09-20T12:01:12.907Z,7.35
2022-09-20T12:07:09.696Z,7.80
2022-09-20T12:12:32.872Z,6.57
2022-09-20T12:17:47.055Z,3.10
2022-09-20T12:22:49.037Z,3.00
2022-09-20T12:27:50.965Z,6.47
2022-09-20T12:32:56.517Z,3.58
2022-09-20T12:38:37.658Z,3.50
2022-09-20T12:43:58.997Z,6.10
2022-09-20T12:49:48.518Z,1.38
2022-09-20T12:54:53.603Z,0.90
2022-09-20T12:59:59.565Z,3.72
2022-09-20T13:05:01.513Z,2.42
2022-09-20T13:10:17.193Z,0.82
2022-09-20T13:15:21.911Z,2.75
2022-09-20T13:20:28.140Z,4.70
2022-09-20T13:25:30.736Z,6.38
2022-09-20T13:30:32.992Z,4.95
2022-09-20T13:35:35.119Z,4.20
2022-09-20T13:40:42.627Z,4.72
2022-09-20T13:45:45.125Z,5.15
2022-09-20T13:50:51.349Z,4.45
2022-09-20T13:55:55.752Z,1.67
2022-09-20T14:01:37.621Z,1.80
2022-09-20T14:06:39.527Z,1.40
2022-09-20T14:11:41.554Z,2.20
2022-09-20T14:16:46.773Z,5.07
2022-09-20T14:21:49.275Z,1.30
2022-09-20T14:27:04.724Z,0.30
2022-09-20T14:32:12.232Z,0.63
2022-09-20T14:37:26.037Z,0.85
2022-09-20T14:42:35.529Z,1.65
2022-09-20T14:47:55.637Z,4.17
2022-09-20T14:53:13.900Z,1.13
2022-09-20T14:58:15.861Z,3.25
2022-09-20T15:03:25.589Z,0.95
2022-09-20T15:08:27.747Z,0.57
2022-09-20T15:13:29.697Z,2.00
2022-09-20T15:18:37.257Z,4.00
2022-09-20T15:23:40.572Z,3.33
2022-09-20T15:28:43.012Z,4.20
2022-09-20T15:33:44.905Z,3.25
2022-09-20T15:38:46.824Z,1.73
2022-09-20T15:43:50.397Z,3.05
2022-09-20T15:48:53.205Z,1.20
2022-09-20T15:53:57.441Z,1.58
2022-09-20T15:59:04.030Z,3.90
2022-09-20T16:04:14.242Z,7.50
2022-09-20T16:09:16.626Z,1.88
2022-09-20T16:14:18.690Z,4.25
2022-09-20T16:19:21.097Z,8.25
2022-09-20T16:24:28.061Z,7.05
2022-09-20T16:29:30.880Z,2.83
2022-09-20T16:34:34.920Z,5.20
2022-09-20T16:39:37.366Z,2.50
2022-09-20T16:44:42.214Z,2.42
2022-09-20T16:49:44.608Z,1.30
2022-09-20T16:54:46.813Z,2.92
2022-09-20T16:59:48.992Z,2.80
2022-09-20T17:04:51.145Z,1.70
2022-09-20T17:10:00.848Z,1.05
2022-09-20T17:15:02.796Z,2.60
2022-09-20T17:20:06.816Z,18.13
2022-09-20T17:25:09.681Z,3.13
2022-09-20T17:30:12.106Z,4.78
2022-09-20T17:35:14.486Z,9.07
2022-09-20T17:40:16.488Z,3.97
2022-09-20T17:45:18.828Z,5.07
2022-09-20T17:50:20.742Z,2.65
2022-09-20T17:55:23.348Z,3.22
2022-09-20T18:00:25.288Z,8.43
2022-09-20T18:05:27.378Z,4.88
2022-09-20T18:10:29.339Z,31.85
2022-09-20T18:15:32.912Z,8.98
2022-09-20T18:20:34.883Z,5.45
2022-09-20T18:25:56.749Z,6.43
2022-09-20T18:31:05.449Z,5.80
2022-09-20T18:36:07.764Z,4.75
2022-09-20T18:41:10.147Z,5.15
2022-09-20T18:46:13.096Z,7.90
2022-09-20T18:51:16.064Z,3.85
2022-09-20T18:56:24.125Z,6.18
2022-09-20T19:01:55.710Z,6.43
2022-09-20T19:07:28.106Z,4.55
2022-09-20T19:12:46.232Z,8.25
2022-09-20T19:18:06.423Z,9.23
2022-09-20T19:23:28.861Z,6.38
2022-09-20T19:28:31.326Z,4.45
2022-09-20T19:33:33.410Z,6.90
2022-09-20T19:39:15.923Z,9.20
2022-09-20T19:44:27.511Z,8.95
2022-09-20T19:49:55.361Z,13.05
2022-09-20T19:54:57.772Z,5.80
2022-09-20T19:59:59.898Z,7.85
2022-09-20T20:05:03.587Z,6.55
2022-09-20T20:10:31.482Z,9.38
2022-09-20T20:15:46.696Z,11.43
2022-09-20T20:20:50.673Z,9.05
2022-09-20T20:26:03.061Z,9.40
2022-09-20T20:31:06.474Z,6.60
2022-09-20T20:36:17.363Z,7.35
2022-09-20T20:41:21.511Z,9.77
2022-09-20T20:46:24.536Z,5.00
2022-09-20T20:51:27.416Z,5.25
2022-09-20T20:56:30.289Z,8.75
2022-09-20T21:01:42.914Z,8.05
2022-09-20T21:06:45.159Z,4.70
2022-09-20T21:11:48.608Z,3.55
2022-09-20T21:16:51.911Z,4.05
2022-09-20T21:21:53.925Z,3.67
2022-09-20T21:26:55.824Z,4.47
2022-09-20T21:31:57.829Z,7.82
2022-09-20T21:37:00.219Z,2.63
2022-09-20T21:42:04.479Z,3.95
2022-09-20T21:47:06.790Z,7.10
2022-09-20T21:52:08.626Z,4.13
2022-09-20T21:57:13.712Z,2.97
2022-09-20T22:02:17.051Z,3.85
2022-09-20T22:07:19.002Z,3.63
2022-09-20T22:12:23.941Z,2.92
2022-09-20T22:17:27.126Z,3.65
2022-09-20T22:22:28.919Z,3.25
2022-09-20T22:27:30.767Z,3.20
2022-09-20T22:32:32.551Z,1.88
2022-09-20T22:37:34.336Z,4.13
2022-09-20T22:42:36.166Z,4.65
2022-09-20T22:47:37.979Z,7.28
2022-09-20T22:52:39.724Z,4.10
2022-09-20T22:57:41.474Z,6.10
2022-09-20T23:02:43.221Z,4.82
2022-09-20T23:07:48.875Z,6.90
2022-09-20T23:12:51.596Z,6.72
2022-09-20T23:17:53.356Z,8.15
2022-09-20T23:22:55.110Z,7.85
2022-09-20T23:27:56.855Z,5.55
2022-09-20T23:32:58.642Z,4.55
2022-09-20T23:38:00.514Z,5.88
2022-09-20T23:43:02.396Z,7.70
2022-09-20T23:48:04.343Z,4.78
2022-09-20T23:53:06.135Z,9.60
2022-09-20T23:58:08.062Z,12.05
